sensor_id;sensor_type;location;lat;lon;timestamp;P1;durP1;ratioP1;P2;durP2;ratioP2
11685;SDS011;5899;51.282;6.094;2024-01-15T00:01:20;18.87;;;11.50;;
11685;SDS011;5899;51.282;6.094;2024-01-15T00:03:52;19.58;;;12.02;;
11685;SDS011;5899;51.282;6.094;2024-01-15T00:09:25;13.82;;;10.43;;
11685;SDS011;5899;51.282;6.094;2024-01-15T00:12:07;17.40;;;11.17;;
11685;SDS011;5899;51.282;6.094;2024-01-15T00:14:39;14.27;;;10.80;;
11685;SDS011;5899;51.282;6.094;2024-01-15T00:17:11;17.98;;;10.95;;
11685;SDS011;5899;51.282;6.094;2024-01-15T00:22:25;16.73;;;10.27;;
11685;SDS011;5899;51.282;6.094;2024-01-15T00:24:58;13.15;;;10.32;;
11685;SDS011;5899;51.282;6.094;2024-01-15T00:27:27;21.98;;;11.77;;
11685;SDS011;5899;51.282;6.094;2024-01-15T00:29:55;15.70;;;9.82;;
11685;SDS011;5899;51.282;6.094;2024-01-15T00:32:25;15.00;;;10.07;;
11685;SDS011;5899;51.282;6.094;2024-01-15T00:35:05;18.65;;;10.02;;
11685;SDS011;5899;51.282;6.094;2024-01-15T00:37:39;17.90;;;10.82;;
11685;SDS011;5899;51.282;6.094;2024-01-15T00:40:13;17.45;;;10.95;;
11685;SDS011;5899;51.282;6.094;2024-01-15T00:42:53;18.88;;;12.18;;
11685;SDS011;5899;51.282;6.094;2024-01-15T00:45:39;12.38;;;9.52;;
11685;SDS011;5899;51.282;6.094;2024-01-15T00:48:12;23.60;;;11.23;;
11685;SDS011;5899;51.282;6.094;2024-01-15T00:50:40;20.43;;;10.53;;
11685;SDS011;5899;51.282;6.094;2024-01-15T00:53:21;14.93;;;10.30;;
11685;SDS011;5899;51.282;6.094;2024-01-15T01:01:27;16.13;;;9.50;;
11685;SDS011;5899;51.282;6.094;2024-01-15T01:04:21;14.40;;;9.18;;
11685;SDS011;5899;51.282;6.094;2024-01-15T01:07:18;15.13;;;9.67;;
11685;SDS011;5899;51.282;6.094;2024-01-15T01:13:06;12.68;;;8.73;;
11685;SDS011;5899;51.282;6.094;2024-01-15T01:15:54;11.50;;;8.98;;
11685;SDS011;5899;51.282;6.094;2024-01-15T01:18:36;15.07;;;9.52;;
11685;SDS011;5899;51.282;6.094;2024-01-15T01:24:05;16.98;;;11.23;;
11685;SDS011;5899;51.282;6.094;2024-01-15T01:26:33;12.15;;;8.00;;
11685;SDS011;5899;51.282;6.094;2024-01-15T01:41:01;9.93;;;6.68;;
11685;SDS011;5899;51.282;6.094;2024-01-15T01:46:40;9.40;;;7.80;;
11685;SDS011;5899;51.282;6.094;2024-01-15T01:49:42;9.85;;;7.20;;
11685;SDS011;5899;51.282;6.094;2024-01-15T01:52:12;8.57;;;7.68;;
11685;SDS011;5899;51.282;6.094;2024-01-15T01:55:30;12.90;;;7.78;;
11685;SDS011;5899;51.282;6.094;2024-01-15T01:58:05;11.52;;;7.40;;
11685;SDS011;5899;51.282;6.094;2024-01-15T02:00:51;10.20;;;8.20;;
11685;SDS011;5899;51.282;6.094;2024-01-15T02:03:21;10.93;;;7.45;;
11685;SDS011;5899;51.282;6.094;2024-01-15T02:06:22;11.75;;;8.73;;
11685;SDS011;5899;51.282;6.094;2024-01-15T02:08:53;10.98;;;8.57;;
11685;SDS011;5899;51.282;6.094;2024-01-15T02:11:55;12.13;;;8.50;;
11685;SDS011;5899;51.282;6.094;2024-01-15T02:17:08;11.43;;;6.68;;
11685;SDS011;5899;51.282;6.094;2024-01-15T02:19:45;9.70;;;7.15;;
11685;SDS011;5899;51.282;6.094;2024-01-15T02:22:12;9.65;;;6.97;;
11685;SDS011;5899;51.282;6.094;2024-01-15T02:25:01;9.32;;;6.82;;
11685;SDS011;5899;51.282;6.094;2024-01-15T02:27:36;9.20;;;6.53;;
11685;SDS011;5899;51.282;6.094;2024-01-15T02:30:03;8.73;;;6.35;;
11685;SDS011;5899;51.282;6.094;2024-01-15T02:35:02;10.20;;;5.70;;
11685;SDS011;5899;51.282;6.094;2024-01-15T02:35:54;9.90;;;7.05;;
11685;SDS011;5899;51.282;6.094;2024-01-15T02:38:27;11.68;;;6.28;;
11685;SDS011;5899;51.282;6.094;2024-01-15T02:47:01;12.05;;;8.05;;
11685;SDS011;5899;51.282;6.094;2024-01-15T02:49:41;8.05;;;6.22;;
11685;SDS011;5899;51.282;6.094;2024-01-15T02:52:24;9.10;;;7.30;;
11685;SDS011;5899;51.282;6.094;2024-01-15T02:55:05;11.95;;;8.38;;
11685;SDS011;5899;51.282;6.094;2024-01-15T02:57:37;8.47;;;7.07;;
11685;SDS011;5899;51.282;6.094;2024-01-15T03:00:12;10.18;;;6.72;;
11685;SDS011;5899;51.282;6.094;2024-01-15T03:02:44;12.88;;;6.97;;
11685;SDS011;5899;51.282;6.094;2024-01-15T03:05:15;11.93;;;7.20;;
11685;SDS011;5899;51.282;6.094;2024-01-15T03:08:01;8.73;;;6.60;;
11685;SDS011;5899;51.282;6.094;2024-01-15T03:10:59;8.52;;;6.43;;
11685;SDS011;5899;51.282;6.094;2024-01-15T03:13:41;10.00;;;6.85;;
11685;SDS011;5899;51.282;6.094;2024-01-15T03:16:22;8.10;;;5.78;;
11685;SDS011;5899;51.282;6.094;2024-01-15T03:24:29;7.78;;;5.43;;
11685;SDS011;5899;51.282;6.094;2024-01-15T03:26:57;9.48;;;6.35;;
11685;SDS011;5899;51.282;6.094;2024-01-15T03:29:51;9.68;;;5.70;;
11685;SDS011;5899;51.282;6.094;2024-01-15T03:32:19;7.28;;;6.15;;
11685;SDS011;5899;51.282;6.094;2024-01-15T03:35:13;11.88;;;6.45;;
11685;SDS011;5899;51.282;6.094;2024-01-15T03:38:00;7.43;;;5.55;;
11685;SDS011;5899;51.282;6.094;2024-01-15T03:46:17;6.88;;;5.25;;
11685;SDS011;5899;51.282;6.094;2024-01-15T03:49:00;5.68;;;4.50;;
11685;SDS011;5899;51.282;6.094;2024-01-15T03:51:44;10.52;;;5.95;;
11685;SDS011;5899;51.282;6.094;2024-01-15T03:54:26;8.85;;;5.20;;
11685;SDS011;5899;51.282;6.094;2024-01-15T03:56:59;5.53;;;5.03;;
11685;SDS011;5899;51.282;6.094;2024-01-15T03:59:45;7.80;;;5.53;;
11685;SDS011;5899;51.282;6.094;2024-01-15T04:02:16;6.90;;;5.38;;
11685;SDS011;5899;51.282;6.094;2024-01-15T04:05:13;6.03;;;5.32;;
11685;SDS011;5899;51.282;6.094;2024-01-15T04:08:13;6.65;;;5.57;;
11685;SDS011;5899;51.282;6.094;2024-01-15T04:10:36;5.82;;;5.22;;
11685;SDS011;5899;51.282;6.094;2024-01-15T04:13:18;6.18;;;4.78;;
11685;SDS011;5899;51.282;6.094;2024-01-15T04:15:49;7.82;;;5.35;;
11685;SDS011;5899;51.282;6.094;2024-01-15T04:18:28;7.80;;;4.82;;
11685;SDS011;5899;51.282;6.094;2024-01-15T04:21:05;5.43;;;4.82;;
11685;SDS011;5899;51.282;6.094;2024-01-15T04:24:04;7.13;;;5.93;;
11685;SDS011;5899;51.282;6.094;2024-01-15T04:26:42;7.78;;;5.47;;
11685;SDS011;5899;51.282;6.094;2024-01-15T04:29:28;6.95;;;6.00;;
11685;SDS011;5899;51.282;6.094;2024-01-15T04:32:16;5.28;;;4.55;;
11685;SDS011;5899;51.282;6.094;2024-01-15T04:40:36;4.93;;;4.30;;
11685;SDS011;5899;51.282;6.094;2024-01-15T04:43:33;7.47;;;5.40;;
11685;SDS011;5899;51.282;6.094;2024-01-15T04:46:02;8.43;;;4.95;;
11685;SDS011;5899;51.282;6.094;2024-01-15T04:48:32;6.07;;;4.65;;
11685;SDS011;5899;51.282;6.094;2024-01-15T04:51:04;4.82;;;4.32;;
11685;SDS011;5899;51.282;6.094;2024-01-15T04:56:38;4.87;;;4.03;;
11685;SDS011;5899;51.282;6.094;2024-01-15T04:59:13;5.33;;;3.33;;
11685;SDS011;5899;51.282;6.094;2024-01-15T05:07:24;5.15;;;4.28;;
11685;SDS011;5899;51.282;6.094;2024-01-15T05:10:39;4.47;;;3.58;;
11685;SDS011;5899;51.282;6.094;2024-01-15T05:18:50;6.70;;;4.47;;
11685;SDS011;5899;51.282;6.094;2024-01-15T05:21:28;3.63;;;3.22;;
11685;SDS011;5899;51.282;6.094;2024-01-15T05:24:20;3.97;;;3.67;;
11685;SDS011;5899;51.282;6.094;2024-01-15T05:27:08;4.85;;;3.72;;
11685;SDS011;5899;51.282;6.094;2024-01-15T05:29:39;5.23;;;4.03;;
11685;SDS011;5899;51.282;6.094;2024-01-15T05:32:29;3.95;;;3.38;;
11685;SDS011;5899;51.282;6.094;2024-01-15T05:40:59;4.45;;;3.20;;
11685;SDS011;5899;51.282;6.094;2024-01-15T05:43:39;4.73;;;3.40;;
11685;SDS011;5899;51.282;6.094;2024-01-15T05:50:48;3.35;;;3.05;;
11685;SDS011;5899;51.282;6.094;2024-01-15T05:52:10;3.88;;;3.58;;
11685;SDS011;5899;51.282;6.094;2024-01-15T05:54:51;4.32;;;3.38;;
11685;SDS011;5899;51.282;6.094;2024-01-15T06:00:41;5.72;;;4.45;;
11685;SDS011;5899;51.282;6.094;2024-01-15T06:03:18;4.63;;;4.22;;
11685;SDS011;5899;51.282;6.094;2024-01-15T06:05:53;4.93;;;4.35;;
11685;SDS011;5899;51.282;6.094;2024-01-15T06:09:08;4.85;;;4.40;;
11685;SDS011;5899;51.282;6.094;2024-01-15T06:11:51;6.00;;;5.03;;
11685;SDS011;5899;51.282;6.094;2024-01-15T06:14:49;8.07;;;4.88;;
11685;SDS011;5899;51.282;6.094;2024-01-15T06:36:42;6.55;;;5.78;;
11685;SDS011;5899;51.282;6.094;2024-01-15T06:39:54;9.88;;;5.47;;
11685;SDS011;5899;51.282;6.094;2024-01-15T06:42:10;6.53;;;5.40;;
11685;SDS011;5899;51.282;6.094;2024-01-15T06:44:44;5.73;;;4.73;;
11685;SDS011;5899;51.282;6.094;2024-01-15T06:47:16;5.97;;;5.38;;
11685;SDS011;5899;51.282;6.094;2024-01-15T06:49:58;4.78;;;4.38;;
11685;SDS011;5899;51.282;6.094;2024-01-15T06:52:36;4.97;;;4.53;;
11685;SDS011;5899;51.282;6.094;2024-01-15T06:55:49;5.13;;;4.15;;
11685;SDS011;5899;51.282;6.094;2024-01-15T06:58:16;5.53;;;4.65;;
11685;SDS011;5899;51.282;6.094;2024-01-15T07:00:43;5.10;;;4.25;;
11685;SDS011;5899;51.282;6.094;2024-01-15T07:03:30;4.50;;;4.10;;
11685;SDS011;5899;51.282;6.094;2024-01-15T07:05:57;4.60;;;3.97;;
11685;SDS011;5899;51.282;6.094;2024-01-15T07:08:34;4.65;;;4.07;;
11685;SDS011;5899;51.282;6.094;2024-01-15T07:11:15;6.10;;;3.60;;
11685;SDS011;5899;51.282;6.094;2024-01-15T07:13:51;6.68;;;4.60;;
11685;SDS011;5899;51.282;6.094;2024-01-15T07:16:42;4.88;;;4.40;;
11685;SDS011;5899;51.282;6.094;2024-01-15T07:20:12;8.00;;;4.73;;
11685;SDS011;5899;51.282;6.094;2024-01-15T07:28:09;4.40;;;4.00;;
11685;SDS011;5899;51.282;6.094;2024-01-15T07:30:50;5.07;;;4.57;;
11685;SDS011;5899;51.282;6.094;2024-01-15T07:33:19;7.63;;;4.32;;
11685;SDS011;5899;51.282;6.094;2024-01-15T07:35:48;7.50;;;4.63;;
11685;SDS011;5899;51.282;6.094;2024-01-15T07:38:28;5.68;;;4.53;;
11685;SDS011;5899;51.282;6.094;2024-01-15T07:41:00;5.03;;;4.50;;
11685;SDS011;5899;51.282;6.094;2024-01-15T07:43:32;5.82;;;4.68;;
11685;SDS011;5899;51.282;6.094;2024-01-15T07:46:08;4.80;;;4.03;;
11685;SDS011;5899;51.282;6.094;2024-01-15T07:48:48;6.97;;;4.05;;
11685;SDS011;5899;51.282;6.094;2024-01-15T07:51:21;5.10;;;4.25;;
11685;SDS011;5899;51.282;6.094;2024-01-15T07:53:54;4.50;;;3.53;;
11685;SDS011;5899;51.282;6.094;2024-01-15T07:56:52;4.05;;;3.75;;
11685;SDS011;5899;51.282;6.094;2024-01-15T07:59:29;7.32;;;4.20;;
11685;SDS011;5899;51.282;6.094;2024-01-15T08:02:03;5.78;;;4.22;;
11685;SDS011;5899;51.282;6.094;2024-01-15T08:04:43;4.43;;;4.03;;
11685;SDS011;5899;51.282;6.094;2024-01-15T08:07:13;6.32;;;4.43;;
11685;SDS011;5899;51.282;6.094;2024-01-15T08:10:01;5.65;;;4.28;;
11685;SDS011;5899;51.282;6.094;2024-01-15T08:12:45;5.68;;;5.07;;
11685;SDS011;5899;51.282;6.094;2024-01-15T08:17:57;6.35;;;5.05;;
11685;SDS011;5899;51.282;6.094;2024-01-15T08:20:24;4.80;;;4.15;;
11685;SDS011;5899;51.282;6.094;2024-01-15T08:22:52;5.15;;;4.65;;
11685;SDS011;5899;51.282;6.094;2024-01-15T08:25:19;6.20;;;5.50;;
11685;SDS011;5899;51.282;6.094;2024-01-15T08:27:47;5.43;;;4.93;;
11685;SDS011;5899;51.282;6.094;2024-01-15T08:30:14;6.73;;;5.77;;
11685;SDS011;5899;51.282;6.094;2024-01-15T08:32:40;6.07;;;5.53;;
11685;SDS011;5899;51.282;6.094;2024-01-15T08:35:11;7.30;;;6.32;;
11685;SDS011;5899;51.282;6.094;2024-01-15T08:37:38;6.13;;;5.53;;
11685;SDS011;5899;51.282;6.094;2024-01-15T08:40:09;7.65;;;5.70;;
11685;SDS011;5899;51.282;6.094;2024-01-15T08:42:36;6.13;;;5.35;;
11685;SDS011;5899;51.282;6.094;2024-01-15T08:45:05;6.07;;;5.47;;
11685;SDS011;5899;51.282;6.094;2024-01-15T08:47:31;5.32;;;4.50;;
11685;SDS011;5899;51.282;6.094;2024-01-15T08:49:59;4.35;;;3.97;;
11685;SDS011;5899;51.282;6.094;2024-01-15T08:52:29;5.00;;;4.40;;
11685;SDS011;5899;51.282;6.094;2024-01-15T08:54:59;4.07;;;3.67;;
11685;SDS011;5899;51.282;6.094;2024-01-15T08:57:26;4.50;;;3.75;;
11685;SDS011;5899;51.282;6.094;2024-01-15T08:59:58;4.38;;;3.97;;
11685;SDS011;5899;51.282;6.094;2024-01-15T09:02:27;4.23;;;3.27;;
11685;SDS011;5899;51.282;6.094;2024-01-15T09:04:54;5.30;;;3.38;;
11685;SDS011;5899;51.282;6.094;2024-01-15T09:07:20;2.92;;;2.72;;
11685;SDS011;5899;51.282;6.094;2024-01-15T09:09:52;6.25;;;3.40;;
11685;SDS011;5899;51.282;6.094;2024-01-15T09:12:19;3.42;;;3.13;;
11685;SDS011;5899;51.282;6.094;2024-01-15T09:14:47;2.65;;;2.45;;
11685;SDS011;5899;51.282;6.094;2024-01-15T09:17:14;2.90;;;2.30;;
11685;SDS011;5899;51.282;6.094;2024-01-15T09:19:43;3.03;;;2.83;;
11685;SDS011;5899;51.282;6.094;2024-01-15T09:22:13;2.47;;;2.27;;
11685;SDS011;5899;51.282;6.094;2024-01-15T09:24:43;3.38;;;3.08;;
11685;SDS011;5899;51.282;6.094;2024-01-15T09:27:11;2.40;;;2.22;;
11685;SDS011;5899;51.282;6.094;2024-01-15T09:29:46;3.25;;;2.58;;
11685;SDS011;5899;51.282;6.094;2024-01-15T09:32:14;4.18;;;2.35;;
11685;SDS011;5899;51.282;6.094;2024-01-15T09:34:47;2.42;;;2.22;;
11685;SDS011;5899;51.282;6.094;2024-01-15T09:37:14;4.38;;;2.75;;
11685;SDS011;5899;51.282;6.094;2024-01-15T09:39:48;3.22;;;2.30;;
11685;SDS011;5899;51.282;6.094;2024-01-15T09:42:19;2.40;;;2.20;;
11685;SDS011;5899;51.282;6.094;2024-01-15T09:44:47;2.25;;;1.95;;
11685;SDS011;5899;51.282;6.094;2024-01-15T09:47:17;2.72;;;2.20;;
11685;SDS011;5899;51.282;6.094;2024-01-15T09:49:44;1.92;;;1.75;;
11685;SDS011;5899;51.282;6.094;2024-01-15T09:52:13;1.80;;;1.70;;
11685;SDS011;5899;51.282;6.094;2024-01-15T09:54:43;1.73;;;1.63;;
11685;SDS011;5899;51.282;6.094;2024-01-15T09:57:10;2.22;;;1.85;;
11685;SDS011;5899;51.282;6.094;2024-01-15T09:59:38;2.47;;;1.88;;
11685;SDS011;5899;51.282;6.094;2024-01-15T10:02:05;2.85;;;1.77;;
11685;SDS011;5899;51.282;6.094;2024-01-15T10:04:33;1.50;;;1.40;;
11685;SDS011;5899;51.282;6.094;2024-01-15T10:07:00;1.40;;;1.30;;
11685;SDS011;5899;51.282;6.094;2024-01-15T10:09:27;1.52;;;1.42;;
11685;SDS011;5899;51.282;6.094;2024-01-15T10:11:54;1.30;;;1.25;;
11685;SDS011;5899;51.282;6.094;2024-01-15T10:14:24;1.35;;;1.25;;
11685;SDS011;5899;51.282;6.094;2024-01-15T10:16:52;1.80;;;1.70;;
11685;SDS011;5899;51.282;6.094;2024-01-15T10:19:20;1.38;;;1.27;;
11685;SDS011;5899;51.282;6.094;2024-01-15T10:21:47;1.20;;;1.20;;
11685;SDS011;5899;51.282;6.094;2024-01-15T10:24:13;1.67;;;1.40;;
11685;SDS011;5899;51.282;6.094;2024-01-15T10:26:40;1.20;;;1.10;;
11685;SDS011;5899;51.282;6.094;2024-01-15T10:29:06;1.23;;;1.13;;
11685;SDS011;5899;51.282;6.094;2024-01-15T10:31:33;1.13;;;1.13;;
11685;SDS011;5899;51.282;6.094;2024-01-15T10:34:11;1.13;;;1.13;;
11685;SDS011;5899;51.282;6.094;2024-01-15T10:36:41;3.00;;;1.50;;
11685;SDS011;5899;51.282;6.094;2024-01-15T10:39:49;1.60;;;1.50;;
11685;SDS011;5899;51.282;6.094;2024-01-15T10:45:27;2.22;;;2.03;;
11685;SDS011;5899;51.282;6.094;2024-01-15T10:47:54;3.27;;;1.90;;
11685;SDS011;5899;51.282;6.094;2024-01-15T10:50:25;1.40;;;1.30;;
11685;SDS011;5899;51.282;6.094;2024-01-15T10:52:54;3.90;;;2.10;;
11685;SDS011;5899;51.282;6.094;2024-01-15T10:55:22;2.65;;;1.90;;
11685;SDS011;5899;51.282;6.094;2024-01-15T10:57:58;2.00;;;1.90;;
11685;SDS011;5899;51.282;6.094;2024-01-15T11:00:27;2.58;;;1.67;;
11685;SDS011;5899;51.282;6.094;2024-01-15T11:02:54;1.98;;;1.88;;
11685;SDS011;5899;51.282;6.094;2024-01-15T11:05:21;2.50;;;2.30;;
11685;SDS011;5899;51.282;6.094;2024-01-15T11:07:51;2.17;;;1.98;;
11685;SDS011;5899;51.282;6.094;2024-01-15T11:10:43;1.92;;;1.80;;
11685;SDS011;5899;51.282;6.094;2024-01-15T11:13:13;1.73;;;1.50;;
11685;SDS011;5899;51.282;6.094;2024-01-15T11:15:55;2.40;;;2.20;;
11685;SDS011;5899;51.282;6.094;2024-01-15T11:18:22;2.33;;;2.13;;
11685;SDS011;5899;51.282;6.094;2024-01-15T11:23:45;2.03;;;1.92;;
11685;SDS011;5899;51.282;6.094;2024-01-15T11:26:32;3.78;;;2.72;;
11685;SDS011;5899;51.282;6.094;2024-01-15T11:29:00;4.88;;;3.05;;
11685;SDS011;5899;51.282;6.094;2024-01-15T11:34:12;5.13;;;3.35;;
11685;SDS011;5899;51.282;6.094;2024-01-15T11:39:41;3.30;;;3.00;;
11685;SDS011;5899;51.282;6.094;2024-01-15T11:42:13;3.90;;;3.60;;
11685;SDS011;5899;51.282;6.094;2024-01-15T11:44:40;3.67;;;3.37;;
11685;SDS011;5899;51.282;6.094;2024-01-15T11:47:12;5.22;;;4.22;;
11685;SDS011;5899;51.282;6.094;2024-01-15T11:49:56;3.40;;;3.10;;
11685;SDS011;5899;51.282;6.094;2024-01-15T11:52:33;4.18;;;3.78;;
11685;SDS011;5899;51.282;6.094;2024-01-15T11:55:12;6.07;;;3.47;;
11685;SDS011;5899;51.282;6.094;2024-01-15T11:57:43;5.07;;;4.05;;
11685;SDS011;5899;51.282;6.094;2024-01-15T12:00:30;4.93;;;3.10;;
11685;SDS011;5899;51.282;6.094;2024-01-15T12:03:01;4.72;;;3.13;;
11685;SDS011;5899;51.282;6.094;2024-01-15T12:05:31;5.13;;;2.78;;
11685;SDS011;5899;51.282;6.094;2024-01-15T12:08:11;3.00;;;2.70;;
11685;SDS011;5899;51.282;6.094;2024-01-15T12:10:45;4.90;;;3.00;;
11685;SDS011;5899;51.282;6.094;2024-01-15T12:13:24;2.75;;;2.25;;
11685;SDS011;5899;51.282;6.094;2024-01-15T12:15:54;3.67;;;2.70;;
11685;SDS011;5899;51.282;6.094;2024-01-15T12:18:29;2.10;;;2.00;;
11685;SDS011;5899;51.282;6.094;2024-01-15T12:20:58;2.95;;;2.30;;
11685;SDS011;5899;51.282;6.094;2024-01-15T12:23:31;2.70;;;2.40;;
11685;SDS011;5899;51.282;6.094;2024-01-15T12:26:39;3.00;;;2.70;;
11685;SDS011;5899;51.282;6.094;2024-01-15T12:29:08;2.53;;;2.33;;
11685;SDS011;5899;51.282;6.094;2024-01-15T12:31:39;2.28;;;2.10;;
11685;SDS011;5899;51.282;6.094;2024-01-15T12:34:07;12.38;;;2.30;;
11685;SDS011;5899;51.282;6.094;2024-01-15T12:36:34;1.63;;;1.52;;
11685;SDS011;5899;51.282;6.094;2024-01-15T12:39:04;2.35;;;1.77;;
11685;SDS011;5899;51.282;6.094;2024-01-15T12:41:35;3.67;;;2.05;;
11685;SDS011;5899;51.282;6.094;2024-01-15T12:44:01;1.98;;;1.60;;
11685;SDS011;5899;51.282;6.094;2024-01-15T12:46:30;4.07;;;2.15;;
11685;SDS011;5899;51.282;6.094;2024-01-15T12:49:00;1.90;;;1.75;;
11685;SDS011;5899;51.282;6.094;2024-01-15T12:51:32;1.48;;;1.38;;
11685;SDS011;5899;51.282;6.094;2024-01-15T12:54:04;2.10;;;1.70;;
11685;SDS011;5899;51.282;6.094;2024-01-15T12:56:31;2.55;;;1.70;;
11685;SDS011;5899;51.282;6.094;2024-01-15T12:58:59;2.55;;;1.50;;
11685;SDS011;5899;51.282;6.094;2024-01-15T13:01:27;2.83;;;2.63;;
11685;SDS011;5899;51.282;6.094;2024-01-15T13:04:04;2.10;;;1.40;;
11685;SDS011;5899;51.282;6.094;2024-01-15T13:06:53;1.20;;;1.20;;
11685;SDS011;5899;51.282;6.094;2024-01-15T13:09:22;2.13;;;1.70;;
11685;SDS011;5899;51.282;6.094;2024-01-15T13:11:56;2.92;;;2.05;;
11685;SDS011;5899;51.282;6.094;2024-01-15T13:14:28;16.42;;;13.32;;
11685;SDS011;5899;51.282;6.094;2024-01-15T13:16:54;2.47;;;2.33;;
11685;SDS011;5899;51.282;6.094;2024-01-15T13:19:23;21.27;;;14.50;;
11685;SDS011;5899;51.282;6.094;2024-01-15T13:21:53;3.50;;;1.38;;
11685;SDS011;5899;51.282;6.094;2024-01-15T13:24:25;1.40;;;1.30;;
11685;SDS011;5899;51.282;6.094;2024-01-15T13:26:51;1.48;;;1.38;;
11685;SDS011;5899;51.282;6.094;2024-01-15T13:29:24;1.55;;;1.45;;
11685;SDS011;5899;51.282;6.094;2024-01-15T13:31:53;1.50;;;1.40;;
11685;SDS011;5899;51.282;6.094;2024-01-15T13:34:22;2.00;;;1.83;;
11685;SDS011;5899;51.282;6.094;2024-01-15T13:36:48;3.20;;;1.80;;
11685;SDS011;5899;51.282;6.094;2024-01-15T13:39:22;1.73;;;1.63;;
11685;SDS011;5899;51.282;6.094;2024-01-15T13:41:51;2.05;;;1.65;;
11685;SDS011;5899;51.282;6.094;2024-01-15T13:44:19;2.27;;;1.70;;
11685;SDS011;5899;51.282;6.094;2024-01-15T13:46:47;1.55;;;1.45;;
11685;SDS011;5899;51.282;6.094;2024-01-15T13:49:15;1.63;;;1.53;;
11685;SDS011;5899;51.282;6.094;2024-01-15T13:51:41;1.40;;;1.30;;
11685;SDS011;5899;51.282;6.094;2024-01-15T13:54:11;1.05;;;1.05;;
11685;SDS011;5899;51.282;6.094;2024-01-15T13:56:39;4.05;;;1.55;;
11685;SDS011;5899;51.282;6.094;2024-01-15T13:59:10;1.65;;;1.55;;
11685;SDS011;5899;51.282;6.094;2024-01-15T14:01:42;1.55;;;1.45;;
11685;SDS011;5899;51.282;6.094;2024-01-15T14:04:08;1.48;;;1.38;;
11685;SDS011;5899;51.282;6.094;2024-01-15T14:06:36;1.30;;;1.30;;
11685;SDS011;5899;51.282;6.094;2024-01-15T14:09:06;1.40;;;1.30;;
11685;SDS011;5899;51.282;6.094;2024-01-15T14:11:35;2.80;;;1.50;;
11685;SDS011;5899;51.282;6.094;2024-01-15T14:14:03;1.80;;;1.40;;
11685;SDS011;5899;51.282;6.094;2024-01-15T14:16:44;1.52;;;1.42;;
11685;SDS011;5899;51.282;6.094;2024-01-15T14:19:17;1.80;;;1.40;;
11685;SDS011;5899;51.282;6.094;2024-01-15T14:21:50;2.38;;;2.20;;
11685;SDS011;5899;51.282;6.094;2024-01-15T14:24:17;2.42;;;2.22;;
11685;SDS011;5899;51.282;6.094;2024-01-15T14:26:49;1.85;;;1.75;;
11685;SDS011;5899;51.282;6.094;2024-01-15T14:29:17;2.40;;;2.20;;
11685;SDS011;5899;51.282;6.094;2024-01-15T14:31:47;1.77;;;1.67;;
11685;SDS011;5899;51.282;6.094;2024-01-15T14:34:18;1.70;;;1.40;;
11685;SDS011;5899;51.282;6.094;2024-01-15T14:36:56;2.13;;;2.03;;
11685;SDS011;5899;51.282;6.094;2024-01-15T14:39:29;2.25;;;2.05;;
11685;SDS011;5899;51.282;6.094;2024-01-15T14:42:01;1.60;;;1.50;;
11685;SDS011;5899;51.282;6.094;2024-01-15T14:44:32;1.37;;;1.27;;
11685;SDS011;5899;51.282;6.094;2024-01-15T14:47:06;1.50;;;1.40;;
11685;SDS011;5899;51.282;6.094;2024-01-15T14:49:39;1.80;;;1.70;;
11685;SDS011;5899;51.282;6.094;2024-01-15T14:52:12;1.63;;;1.52;;
11685;SDS011;5899;51.282;6.094;2024-01-15T14:54:41;3.83;;;2.30;;
11685;SDS011;5899;51.282;6.094;2024-01-15T14:57:09;2.58;;;2.38;;
11685;SDS011;5899;51.282;6.094;2024-01-15T14:59:39;5.85;;;5.45;;
11685;SDS011;5899;51.282;6.094;2024-01-15T15:02:13;1.70;;;1.60;;
11685;SDS011;5899;51.282;6.094;2024-01-15T15:04:43;5.40;;;1.90;;
11685;SDS011;5899;51.282;6.094;2024-01-15T15:07:20;5.10;;;3.13;;
11685;SDS011;5899;51.282;6.094;2024-01-15T15:09:58;1.90;;;1.77;;
11685;SDS011;5899;51.282;6.094;2024-01-15T15:12:30;2.22;;;2.13;;
11685;SDS011;5899;51.282;6.094;2024-01-15T15:15:00;1.80;;;1.70;;
11685;SDS011;5899;51.282;6.094;2024-01-15T15:17:32;1.92;;;1.83;;
11685;SDS011;5899;51.282;6.094;2024-01-15T15:20:04;1.40;;;1.30;;
11685;SDS011;5899;51.282;6.094;2024-01-15T15:22:37;1.60;;;1.50;;
11685;SDS011;5899;51.282;6.094;2024-01-15T15:25:11;1.50;;;1.40;;
11685;SDS011;5899;51.282;6.094;2024-01-15T15:27:39;1.90;;;1.80;;
11685;SDS011;5899;51.282;6.094;2024-01-15T15:30:10;2.35;;;2.15;;
11685;SDS011;5899;51.282;6.094;2024-01-15T15:32:37;2.22;;;1.75;;
11685;SDS011;5899;51.282;6.094;2024-01-15T15:35:09;4.30;;;2.00;;
11685;SDS011;5899;51.282;6.094;2024-01-15T15:37:40;1.80;;;1.70;;
11685;SDS011;5899;51.282;6.094;2024-01-15T15:40:07;1.60;;;1.50;;
11685;SDS011;5899;51.282;6.094;2024-01-15T15:44:33;2.20;;;2.00;;
11685;SDS011;5899;51.282;6.094;2024-01-15T15:45:46;2.00;;;1.90;;
11685;SDS011;5899;51.282;6.094;2024-01-15T15:48:14;3.78;;;3.20;;
11685;SDS011;5899;51.282;6.094;2024-01-15T15:50:46;2.42;;;1.95;;
11685;SDS011;5899;51.282;6.094;2024-01-15T15:53:14;6.13;;;2.15;;
11685;SDS011;5899;51.282;6.094;2024-01-15T15:55:42;2.72;;;2.42;;
11685;SDS011;5899;51.282;6.094;2024-01-15T15:58:19;2.90;;;2.03;;
11685;SDS011;5899;51.282;6.094;2024-01-15T16:00:49;4.28;;;2.95;;
11685;SDS011;5899;51.282;6.094;2024-01-15T16:03:31;3.78;;;1.90;;
11685;SDS011;5899;51.282;6.094;2024-01-15T16:06:04;6.05;;;3.00;;
11685;SDS011;5899;51.282;6.094;2024-01-15T16:08:42;3.22;;;2.35;;
11685;SDS011;5899;51.282;6.094;2024-01-15T16:11:39;3.50;;;2.40;;
11685;SDS011;5899;51.282;6.094;2024-01-15T16:14:02;4.55;;;2.75;;
11685;SDS011;5899;51.282;6.094;2024-01-15T16:16:46;2.95;;;2.67;;
11685;SDS011;5899;51.282;6.094;2024-01-15T16:19:22;5.32;;;2.65;;
11685;SDS011;5899;51.282;6.094;2024-01-15T16:21:52;3.08;;;2.50;;
11685;SDS011;5899;51.282;6.094;2024-01-15T16:27:23;5.72;;;2.58;;
11685;SDS011;5899;51.282;6.094;2024-01-15T16:29:55;3.67;;;3.33;;
11685;SDS011;5899;51.282;6.094;2024-01-15T16:32:22;5.40;;;3.10;;
11685;SDS011;5899;51.282;6.094;2024-01-15T16:34:49;2.70;;;2.50;;
11685;SDS011;5899;51.282;6.094;2024-01-15T16:37:21;3.17;;;2.40;;
11685;SDS011;5899;51.282;6.094;2024-01-15T16:39:59;3.38;;;2.42;;
11685;SDS011;5899;51.282;6.094;2024-01-15T16:42:31;3.47;;;2.38;;
11685;SDS011;5899;51.282;6.094;2024-01-15T16:45:00;2.83;;;2.50;;
11685;SDS011;5899;51.282;6.094;2024-01-15T16:47:29;2.22;;;2.03;;
11685;SDS011;5899;51.282;6.094;2024-01-15T16:49:59;3.97;;;2.33;;
11685;SDS011;5899;51.282;6.094;2024-01-15T16:52:29;2.35;;;2.15;;
11685;SDS011;5899;51.282;6.094;2024-01-15T16:55:30;2.10;;;1.90;;
11685;SDS011;5899;51.282;6.094;2024-01-15T17:00:42;3.30;;;2.78;;
11685;SDS011;5899;51.282;6.094;2024-01-15T17:03:18;12.20;;;7.85;;
11685;SDS011;5899;51.282;6.094;2024-01-15T17:06:34;8.32;;;4.82;;
11685;SDS011;5899;51.282;6.094;2024-01-15T17:08:56;3.10;;;2.65;;
11685;SDS011;5899;51.282;6.094;2024-01-15T17:11:37;4.55;;;3.10;;
11685;SDS011;5899;51.282;6.094;2024-01-15T17:14:14;3.13;;;2.80;;
11685;SDS011;5899;51.282;6.094;2024-01-15T17:16:43;9.13;;;3.30;;
11685;SDS011;5899;51.282;6.094;2024-01-15T17:19:13;3.55;;;2.60;;
11685;SDS011;5899;51.282;6.094;2024-01-15T17:21:44;2.25;;;2.05;;
11685;SDS011;5899;51.282;6.094;2024-01-15T17:24:11;2.80;;;2.13;;
11685;SDS011;5899;51.282;6.094;2024-01-15T17:26:40;2.72;;;2.47;;
11685;SDS011;5899;51.282;6.094;2024-01-15T17:29:07;2.60;;;2.40;;
11685;SDS011;5899;51.282;6.094;2024-01-15T17:31:34;4.80;;;2.23;;
11685;SDS011;5899;51.282;6.094;2024-01-15T17:34:06;6.53;;;3.20;;
11685;SDS011;5899;51.282;6.094;2024-01-15T17:37:20;8.45;;;2.42;;
11685;SDS011;5899;51.282;6.094;2024-01-15T17:40:03;3.38;;;2.60;;
11685;SDS011;5899;51.282;6.094;2024-01-15T17:42:41;2.50;;;2.30;;
11685;SDS011;5899;51.282;6.094;2024-01-15T17:45:19;4.47;;;2.65;;
11685;SDS011;5899;51.282;6.094;2024-01-15T17:48:10;2.77;;;2.53;;
11685;SDS011;5899;51.282;6.094;2024-01-15T17:50:48;7.20;;;2.25;;
11685;SDS011;5899;51.282;6.094;2024-01-15T17:53:22;2.92;;;2.05;;
11685;SDS011;5899;51.282;6.094;2024-01-15T17:55:50;7.50;;;2.33;;